• Join FlightAware (Why Join?)
  • Login
  • US Flag 
04:04PM EST


 

Airport Tracker/Info


-or-


 

Live Flight TrackerFlight Track Log ✈ SWA2436 ✈ 09-Apr-2013 ✈ KMHT - KMCO

Flight Track Log - Related Links

Times and Time Zones

All times are in EDT time to prevent confusion due to time zone crossing. See the SWA2436 flight status page for this flight to view local times or setup timezone preferences in your user account.

Time Position Orientation Groundspeed Altitude Reporting Facility
EDT Latitude Longitude Course Direction KTS MPH feet Rate Location/Type
04:38PM 42.9500 -71.4333 334° Northwest 146 168 1,200  Level KA90
04:39PM 43.0000 -71.4667 334° Northwest 202 232 2,700 1,920 Climbing KA90
04:40PM 43.0147 -71.4008 73° East 243 280 5,300 1,860 Climbing Boston Center
04:41PM 42.9867 -71.3133 114° Southeast 244 281 6,900 2,280 Climbing Boston Center
04:42PM 43.0314 -71.1933 63° Northeast 279 321 10,000 2,580 Climbing Boston Center
04:43PM 43.0675 -71.0844 66° East 321 369 12,000 2,640 Climbing Boston Center
04:44PM 43.0344 -70.9347 107° East 378 435 15,200 2,820 Climbing Boston Center
04:45PM 42.9383 -70.9114 170° South 304 350 17,800 2,460 Climbing Boston Center
04:46PM 42.8408 -70.9508 197° South 319 367 20,200 2,340 Climbing Boston Center
04:47PM 42.7372 -71.0011 200° South 362 417 22,500 2,100 Climbing Boston Center
04:48PM 42.6275 -71.0631 203° Southwest 403 464 24,400 1,740 Climbing Boston Center
04:49PM 42.5519 -71.1831 230° Southwest 410 472 26,100 1,800 Climbing Boston Center
04:50PM 42.4886 -71.3139 237° Southwest 410 472 28,100 1,740 Climbing Boston Center
04:51PM 42.4211 -71.4472 236° Southwest 424 488 29,700 2,280 Climbing Boston Center
04:52PM 42.3408 -71.5917 233° Southwest 436 502 32,800 2,340 Climbing Boston Center
04:53PM 42.2792 -71.7133 236° Southwest 422 486 34,400 1,440 Climbing Boston Center
04:54PM 42.2133 -71.8375 234° Southwest 422 486 35,700 1,020 Climbing Boston Center
04:55PM 42.1472 -71.9642 235° Southwest 422 486 36,500 720 Climbing Boston Center
04:56PM 42.0811 -72.0933 235° Southwest 422 486 37,200 600 Climbing Boston Center
04:57PM 42.0083 -72.2278 234° Southwest 433 498 37,800 360 Climbing Boston Center
04:58PM 41.9356 -72.3647 234° Southwest 444 511 38,000 60 Climbing Boston Center
04:59PM 41.8628 -72.5014 234° Southwest 451 519 38,000  Level Boston Center
05:00PM 41.7894 -72.6433 235° Southwest 451 519 38,000  Level Boston Center
05:01PM 41.7164 -72.7794 234° Southwest 451 519 38,000  Level Boston Center
05:02PM 41.6428 -72.9150 234° Southwest 451 519 38,000  Level Boston Center
05:03PM 41.5692 -73.0533 235° Southwest 456 525 38,000  Level Boston Center
05:04PM 41.5061 -73.1719 235° Southwest 452 520 38,000  Level Boston Center
05:07PM 41.3147 -73.5281 234° Southwest 455 524 38,000  Level New York Center
05:08PM 41.2367 -73.6628 232° Southwest 460 529 38,000  Level New York Center
05:09PM 41.1561 -73.7969 231° Southwest 470 541 38,000  Level New York Center
05:10PM 41.0778 -73.9283 232° Southwest 470 541 38,000  Level New York Center
05:11PM 41.0036 -74.0514 231° Southwest 457 526 38,000  Level New York Center
05:12PM 40.9314 -74.1769 233° Southwest 446 513 38,000  Level New York Center
05:13PM 40.8528 -74.2964 229° Southwest 439 505 38,000  Level New York Center
05:14PM 40.7803 -74.4158 231° Southwest 434 499 38,000  Level New York Center
05:15PM 40.7078 -74.5381 232° Southwest 434 499 38,000  Level New York Center
05:16PM 40.6419 -74.6436 231° Southwest 434 499 38,000  Level New York Center
05:17PM 40.5692 -74.7597 230° Southwest 429 494 38,000  Level New York Center
05:18PM 40.4925 -74.8728 228° Southwest 424 488 38,000  Level New York Center
05:19PM 40.4156 -74.9800 227° Southwest 419 482 38,000  Level New York Center
05:20PM 40.3389 -75.0869 227° Southwest 414 476 38,000  Level New York Center
05:21PM 40.2642 -75.1936 227° Southwest 409 471 38,000  Level New York Center
05:22PM 40.1889 -75.3031 228° Southwest 409 471 38,000  Level New York Center
05:23PM 40.1097 -75.4119 226° Southwest 404 465 38,000  Level New York Center
05:24PM 40.0325 -75.5178 226° Southwest 404 465 38,000  Level New York Center
05:25PM 39.9508 -75.6289 226° Southwest 415 478 38,000  Level New York Center
05:26PM 39.8750 -75.7481 230° Southwest 421 484 38,000  Level New York Center
05:27PM 39.8033 -75.8644 231° Southwest 426 490 38,000  Level New York Center
05:28PM 39.7294 -75.9806 230° Southwest 426 490 38,000  Level New York Center
05:29PM 39.6514 -76.0961 229° Southwest 431 496 38,000  Level New York Center
05:30PM 39.5681 -76.2294 231° Southwest 431 496 38,000  Level Washington Center
05:31PM 39.4944 -76.3472 231° Southwest 437 503 38,000  Level Washington Center
05:32PM 39.4186 -76.4647 230° Southwest 430 495 38,000  Level Washington Center
05:33PM 39.3428 -76.5792 229° Southwest 425 489 38,000  Level Washington Center
05:34PM 39.2711 -76.6961 232° Southwest 425 489 38,000  Level Washington Center
05:35PM 39.1928 -76.8047 227° Southwest 425 489 38,000  Level Washington Center
05:36PM 39.1228 -76.9239 233° Southwest 425 489 38,000  Level Washington Center
05:37PM 39.0486 -77.0269 227° Southwest 415 478 38,000  Level Washington Center
05:38PM 38.9619 -77.1267 222° Southwest 415 478 38,000  Level Washington Center
05:39PM 38.8772 -77.2208 221° Southwest 415 478 38,000  Level Washington Center
05:40PM 38.7906 -77.3147 220° Southwest 415 478 38,000  Level Washington Center
05:41PM 38.7036 -77.4086 220° Southwest 415 478 38,000  Level Washington Center
05:42PM 38.6167 -77.5075 222° Southwest 415 478 38,000  Level Washington Center
05:43PM 38.5361 -77.5903 219° Southwest 415 478 38,000  Level Washington Center
05:44PM 38.4469 -77.6886 221° Southwest 415 478 38,000  Level Washington Center
05:45PM 38.3575 -77.7842 220° Southwest 415 478 38,000  Level Washington Center
05:46PM 38.2683 -77.8792 220° Southwest 415 478 38,000  Level Washington Center
05:47PM 38.1789 -77.9769 221° Southwest 415 478 38,000  Level Washington Center
05:48PM 38.0872 -78.0717 219° Southwest 415 478 38,000  Level Washington Center
05:49PM 38.0017 -78.1664 221° Southwest 415 478 38,000  Level Washington Center
05:50PM 37.8994 -78.2656 217° Southwest 415 478 38,000  Level Washington Center
05:51PM 37.8056 -78.3569 218° Southwest 415 478 38,000  Level Washington Center
05:52PM 37.7117 -78.4453 217° Southwest 427 491 38,000  Level Washington Center
05:53PM 37.6264 -78.5233 216° Southwest 427 491 38,000  Level Washington Center
05:54PM 37.5325 -78.6139 217° Southwest 432 497 38,000  Level Washington Center
05:55PM 37.4386 -78.6992 216° Southwest 432 497 38,000  Level Washington Center
05:56PM 37.3444 -78.7867 216° Southwest 427 491 38,000  Level Washington Center
05:57PM 37.2417 -78.8792 216° Southwest 427 491 38,000  Level Washington Center
05:58PM 37.1475 -78.9689 217° Southwest 427 491 38,000  Level Washington Center
05:59PM 37.0553 -79.0533 216° Southwest 427 491 38,000  Level Washington Center
06:00PM 36.9631 -79.1400 217° Southwest 427 491 38,000  Level Washington Center
06:01PM 36.8708 -79.2267 217° Southwest 427 491 38,000  Level Washington Center
06:02PM 36.7850 -79.3031 215° Southwest 427 491 38,000  Level Washington Center
06:03PM 36.6906 -79.3892 216° Southwest 427 491 38,000  Level Washington Center
06:04PM 36.5958 -79.4778 217° Southwest 427 491 38,000  Level Washington Center
06:05PM 36.4925 -79.5733 217° Southwest 427 491 38,000  Level Washington Center
06:06PM 36.4000 -79.6564 216° Southwest 427 491 38,000  Level Washington Center
06:06PM 36.3608 -79.6869 212° Southwest 427 491 38,000  Level Atlanta Center
06:07PM 36.2697 -79.7717 217° Southwest 420 483 38,000  Level Atlanta Center
06:08PM 36.1767 -79.8536 215° Southwest 420 483 38,000  Level Atlanta Center
06:09PM 36.0939 -79.9300 217° Southwest 420 483 38,000  Level Atlanta Center
06:10PM 35.9939 -79.9992 209° Southwest 420 483 38,000  Level Atlanta Center
06:11PM 35.8853 -80.0558 203° Southwest 420 483 38,000  Level Atlanta Center
06:12PM 35.7764 -80.1097 202° Southwest 426 490 38,000  Level Atlanta Center
06:13PM 35.6678 -80.1686 204° Southwest 432 497 38,000  Level Atlanta Center
06:14PM 35.5567 -80.2200 201° Southwest 432 497 38,000  Level Atlanta Center
06:15PM 35.4497 -80.2758 203° Southwest 432 497 38,000  Level Atlanta Center
06:16PM 35.3286 -80.3372 202° Southwest 432 497 38,000  Level Atlanta Center
06:17PM 35.2175 -80.3906 201° Southwest 440 506 38,000  Level Atlanta Center
06:18PM 35.1044 -80.4489 203° Southwest 440 506 38,000  Level Atlanta Center
06:20PM 34.9367 -80.5275 201° Southwest 425 489 38,000  Level Jacksonville Center
06:21PM 34.8167 -80.5864 202° Southwest 438 504 38,000  Level Jacksonville Center
06:22PM 34.7092 -80.6450 204° Southwest 431 496 38,000  Level Jacksonville Center
06:23PM 34.5894 -80.7008 201° Southwest 439 505 38,000  Level Jacksonville Center
06:24PM 34.4797 -80.7567 203° Southwest 446 513 38,000  Level Jacksonville Center
06:25PM 34.3681 -80.8122 202° Southwest 442 509 38,000  Level Jacksonville Center
06:26PM 34.2603 -80.8575 199° South 430 495 38,000  Level Jacksonville Center
06:27PM 34.1417 -80.8778 188° South 419 482 38,000  Level Jacksonville Center
06:28PM 34.0189 -80.8981 188° South 429 494 38,000  Level Jacksonville Center
06:29PM 33.8981 -80.9158 187° South 442 509 38,000  Level Jacksonville Center
06:30PM 33.7753 -80.9361 188° South 447 514 38,000  Level Jacksonville Center
06:31PM 33.6525 -80.9589 189° South 447 514 38,000  Level Jacksonville Center
06:32PM 33.5422 -80.9739 186° South 447 514 38,000  Level Jacksonville Center
06:33PM 33.4214 -80.9964 189° South 447 514 38,000  Level Jacksonville Center
06:34PM 33.2986 -81.0139 187° South 447 514 38,000  Level Jacksonville Center
06:35PM 33.1736 -81.0339 188° South 447 514 38,000  Level Jacksonville Center
06:36PM 33.0528 -81.0536 188° South 447 514 38,000  Level Jacksonville Center
06:37PM 32.9300 -81.0736 188° South 447 514 38,000  Level Jacksonville Center
06:38PM 32.8050 -81.0958 188° South 447 514 38,000  Level Jacksonville Center
06:39PM 32.6822 -81.1156 188° South 447 514 38,000  Level Jacksonville Center
06:40PM 32.5489 -81.1303 185° South 441 507 38,000  Level Jacksonville Center
06:41PM 32.4381 -81.1278 179° South 450 518 38,000  Level Jacksonville Center
06:42PM 32.3067 -81.1278 180° South 457 526 38,000  Level Jacksonville Center
06:43PM 32.1814 -81.1278 180° South 457 526 38,000  Level Jacksonville Center
06:44PM 32.0581 -81.1228 178° South 457 526 38,000  Level Jacksonville Center
06:45PM 31.9328 -81.1250 181° South 457 526 38,000  Level Jacksonville Center
06:46PM 31.7972 -81.1228 179° South 452 520 38,000  Level Jacksonville Center
06:47PM 31.6822 -81.1225 180° South 457 526 38,000  Level Jacksonville Center
06:48PM 31.5425 -81.1228 180° South 457 526 38,000  Level Jacksonville Center
06:49PM 31.4172 -81.1203 179° South 457 526 38,000  Level Jacksonville Center
06:50PM 31.2897 -81.1131 177° South 465 535 38,000  Level Jacksonville Center
06:51PM 31.1658 -81.0742 165° South 465 535 38,000 -480 Level Jacksonville Center
06:52PM 31.0383 -81.0619 175° South 470 541 37,100 -900 Descending Jacksonville Center
06:53PM 30.9133 -81.0669 182° South 465 535 36,200 -960 Descending Jacksonville Center
06:54PM 30.7839 -81.0717 182° South 460 529 35,200 -1,020 Descending Jacksonville Center
06:55PM 30.6586 -81.0742 181° South 454 522 34,200 -600 Descending Jacksonville Center
06:56PM 30.5333 -81.0789 182° South 454 522 34,000 -120 Descending Jacksonville Center
06:57PM 30.4061 -81.0814 181° South 454 522 34,000  Level Jacksonville Center
06:58PM 30.2808 -81.0861 182° South 459 528 34,000  Level Jacksonville Center
06:59PM 30.1536 -81.0886 181° South 459 528 34,000 -960 Level Jacksonville Center
07:00PM 30.0306 -81.0956 183° South 459 528 32,100 -2,460 Descending Jacksonville Center
07:01PM 29.9053 -81.0981 181° South 459 528 29,100 -2,700 Descending Jacksonville Center
07:02PM 29.7883 -81.1000 181° South 448 516 26,700 -2,400 Descending Jacksonville Center
07:03PM 29.6714 -81.1047 182° South 435 501 24,300 -2,340 Descending Jacksonville Center
07:04PM 29.5567 -81.1092 182° South 418 481 22,100 -2,220 Descending Jacksonville Center
07:05PM 29.4525 -81.1111 181° South 404 465 19,900 -2,160 Descending Jacksonville Center
07:06PM 29.3481 -81.1106 180° South 389 448 17,800 -2,100 Descending Jacksonville Center
07:07PM 29.2458 -81.1100 180° South 378 435 15,700 -2,160 Descending Jacksonville Center
07:08PM 29.1475 -81.1022 176° South 366 421 13,500 -1,800 Descending Jacksonville Center
07:09PM 29.0514 -81.0944 176° South 356 410 12,200 -1,140 Descending Jacksonville Center
07:10PM 28.9678 -81.0842 174° South 331 381 11,300 -1,500 Descending Jacksonville Center
07:11PM 28.8861 -81.0714 172° South 309 356 9,300 -2,100 Descending Jacksonville Center
07:11PM 28.8333 -81.0667 176° South 290 334 7,900 -1,800 Descending Orlando TRACON
07:12PM 28.7833 -81.1000 210° Southwest 281 323 6,600 -1,140 Descending Orlando TRACON
07:13PM 28.7333 -81.1667 229° Southwest 265 305 5,800 -1,200 Descending Orlando TRACON
07:14PM 28.7000 -81.2333 240° Southwest 250 288 4,300 -1,200 Descending Orlando TRACON
07:15PM 28.6333 -81.2667 204° Southwest 227 261 3,400 -660 Descending Orlando TRACON
07:16PM 28.5833 -81.3000 210° Southwest 225 259 3,000 -660 Descending Orlando TRACON
07:17PM 28.5167 -81.3000 180° South 188 216 2,100 -1,020 Descending Orlando TRACON
07:18PM 28.4833 -81.3000 180° South 151 174 1,000 -1,260 Descending Orlando TRACON
07:20PM 28.4294 -81.3090 180° South  Level Estimated
07:27PM 28.4294 -81.3090 336° Northwest  Level Estimated
07:28PM 28.4294 -81.3090 336° Northwest  Level Estimated
07:29PM 28.4294 -81.3090 336° Northwest  Level Estimated
07:30PM 28.4294 -81.3090 336° Northwest  Level Estimated